Gove, Northern Territory

4:45 PM ACST on October 01, 2016 (GMT +0930)
Gove | | Change Station

Elev 190 ft 12.27 °S, 136.82 °E | Updated 15 minutes ago

Clear
Clear
86 °F
Feels Like 92 °F
N
9
Wind Variable Wind from NE

Today
High -- | Low -- °F
--% Chance of Precip.
Yesterday
High -- | Low -- °F
Precip. -- in
Pressure 29.80 in
Visibility 6.2 miles
Clouds
Heat Index 92 °F
Dew Point 72 °F
Humidity 62%
Rainfall 0.00 in
Snow Depth Not available.
6:06 AM 6:18 PM
New Moon, 0% visible
METAR YPGV 010700Z AUTO 05008KT 9999 // NCD 30/22 Q1009
Pressure 29.80 in
Visibility 6.2 miles
Clouds
Heat Index 92 °F
Dew Point 72 °F
Humidity 62%
Rainfall 0.00 in
Snow Depth Not available.
6:06 AM 6:18 PM
New Moon, 0% visible
METAR YPGV 010700Z AUTO 05008KT 9999 // NCD 30/22 Q1009

10-Day Weather Forecast

Almanac

Astronomy

Oct. 01, 2016 Rise Set
Actual Time
Civil Twilight
Nautical Twilight
Astronomical Twilight
Moon
Length of Visible Light
Length of Day
Tomorrow will be .
, % of the Moon is Illuminated

Today's Extremes

Country Highs Country Lows

Community

WunderPhotos

Upload Photos

1,942,898 photos uploaded!

WunderBlog® & News

Nearby

Air Quality

  Air Quality AQ Index Pollutant
Not available.

Snow Depth

Station Depth Elevation

Earthquake Activity

City Distance Mag. Time & Date
Minimum magnitude displayed is 2.5.

Coastal Water Temperatures

Place Temperature

Stations

Nearby Weather Stations

Station Location Temp. Windchill Dew Point Humidity Wind Precip. Elev Updated Type